Time;durP1;ratioP1;P1;durP2;ratioP2;P2;SDS_P1;SDS_P2;PMS_P1;PMS_P2;Temp;Humidity;BMP_temperature;BMP_pressure;BME280_temperature;BME280_humidity;BME280_pressure;Samples;Min_cycle;Max_cycle;Signal;HPM_P1;HPM_P2
2022/11/11 00:01:15;;;;;;;8.10;7.85;;;9.80;99.90;;;;;;4228730;28;20125;-81
2022/11/11 00:03:35;;;;;;;8.70;8.38;;;9.70;99.90;;;;;;4228066;28;20057;-81
2022/11/11 00:06:03;;;;;;;7.05;6.78;;;9.70;99.90;;;;;;4224308;28;20077;-81
2022/11/11 00:08:23;;;;;;;7.13;6.93;;;9.70;99.90;;;;;;4213806;28;20055;-81
2022/11/11 00:10:43;;;;;;;5.72;5.43;;;9.70;99.90;;;;;;4229932;28;20227;-81
2022/11/11 00:13:04;;;;;;;6.15;5.95;;;9.60;99.90;;;;;;4224968;28;20361;-82
2022/11/11 00:15:24;;;;;;;6.53;6.15;;;9.70;99.90;;;;;;4231076;28;20062;-82
2022/11/11 00:25:42;;;;;;;5.30;5.20;;;9.60;99.90;;;;;;4228974;28;20051;-82
2022/11/11 00:28:02;;;;;;;5.03;4.93;;;9.70;99.90;;;;;;4228161;28;20038;-82
2022/11/11 00:30:22;;;;;;;4.85;4.75;;;9.70;99.90;;;;;;4228950;28;20273;-82
2022/11/11 00:32:42;;;;;;;7.70;7.60;;;9.70;99.90;;;;;;4223564;28;20047;-82
2022/11/11 00:37:43;;;;;;;6.75;6.38;;;9.70;99.90;;;;;;4228798;28;20042;-82
2022/11/11 00:40:04;;;;;;;4.85;4.75;;;9.60;99.90;;;;;;4225767;28;20059;-82
2022/11/11 00:42:24;;;;;;;4.20;4.10;;;9.60;99.90;;;;;;4228916;28;20046;-82
2022/11/11 00:44:44;;;;;;;5.25;5.15;;;9.70;99.90;;;;;;4215594;28;20055;-82
2022/11/11 00:52:20;;;;;;;4.72;4.63;;;9.70;99.90;;;;;;4235186;28;20043;-82
2022/11/11 00:54:40;;;;;;;5.60;5.40;;;9.60;99.90;;;;;;4218177;28;20262;-82
2022/11/11 00:57:00;;;;;;;6.07;5.90;;;9.60;99.90;;;;;;4233702;28;20034;-82
2022/11/11 00:59:19;;;;;;;6.07;5.88;;;9.50;99.90;;;;;;4233397;28;20123;-82
2022/11/11 01:01:39;;;;;;;5.72;5.63;;;9.50;99.90;;;;;;4228381;28;20424;-82
2022/11/11 01:03:59;;;;;;;6.60;6.30;;;9.50;99.90;;;;;;4236191;28;20050;-82
2022/11/11 01:06:19;;;;;;;7.85;7.30;;;9.40;99.90;;;;;;4234535;28;20039;-82
2022/11/11 01:08:41;;;;;;;6.43;6.22;;;9.30;99.90;;;;;;4231649;28;20397;-82
2022/11/11 01:11:01;;;;;;;8.10;7.68;;;9.30;99.90;;;;;;4227028;28;20116;-82
2022/11/11 01:13:30;;;;;;;7.07;6.78;;;9.30;99.90;;;;;;4224250;28;20062;-82
2022/11/11 01:15:52;;;;;;;8.50;8.10;;;9.30;99.90;;;;;;4227041;28;20257;-81
2022/11/11 01:18:14;;;;;;;7.05;6.85;;;9.20;99.90;;;;;;4221938;28;20070;-81
2022/11/11 01:20:36;;;;;;;6.57;6.47;;;9.20;99.90;;;;;;4227507;28;20405;-82
2022/11/11 01:22:56;;;;;;;6.10;5.75;;;9.20;99.90;;;;;;4236441;28;20644;-82
2022/11/11 01:25:16;;;;;;;6.82;6.53;;;9.10;99.90;;;;;;4224480;28;20050;-82
2022/11/11 01:27:35;;;;;;;10.48;10.00;;;9.10;99.90;;;;;;4233301;28;20035;-82
2022/11/11 01:29:55;;;;;;;13.02;11.98;;;8.90;99.90;;;;;;4230222;28;20051;-82
2022/11/11 01:32:15;;;;;;;28.40;15.10;;;8.80;99.90;;;;;;4229595;28;20043;-82
2022/11/11 01:34:35;;;;;;;13.23;11.73;;;8.70;99.90;;;;;;4227076;28;20046;-82
2022/11/11 01:36:54;;;;;;;10.38;9.82;;;8.60;99.90;;;;;;4225907;28;20035;-82
2022/11/11 01:39:14;;;;;;;9.88;9.48;;;8.70;99.90;;;;;;4219616;28;20050;-82
2022/11/11 01:41:37;;;;;;;9.50;9.07;;;8.70;99.90;;;;;;4221083;28;20098;-82
2022/11/11 01:44:10;;;;;;;10.70;9.70;;;8.70;99.90;;;;;;4233458;28;20047;-82
2022/11/11 01:46:55;;;;;;;8.55;8.27;;;8.50;99.90;;;;;;4223215;28;20043;-82
2022/11/11 01:49:33;;;;;;;6.60;6.45;;;8.50;99.90;;;;;;4231254;28;20353;-82
2022/11/11 01:52:33;;;;;;;5.28;5.07;;;8.50;99.90;;;;;;4231506;28;20047;-82
2022/11/11 01:54:53;;;;;;;4.07;3.97;;;8.60;99.90;;;;;;4222369;28;20275;-82
2022/11/11 01:57:16;;;;;;;3.95;3.85;;;8.70;99.90;;;;;;4229611;28;20042;-82
2022/11/11 01:59:37;;;;;;;4.70;4.40;;;8.90;99.90;;;;;;4218589;28;20794;-82
2022/11/11 02:01:59;;;;;;;3.75;3.65;;;8.90;99.90;;;;;;4226637;28;20086;-82
2022/11/11 02:07:01;;;;;;;3.88;3.78;;;9.10;99.90;;;;;;4229630;28;20061;-81
2022/11/11 02:09:24;;;;;;;3.75;3.65;;;9.30;99.90;;;;;;4233585;28;20104;-81
2022/11/11 02:14:35;;;;;;;3.42;3.00;;;9.50;99.90;;;;;;4229883;28;20105;-81
2022/11/11 02:16:55;;;;;;;3.77;3.77;;;9.50;99.90;;;;;;4232642;28;20227;-81
2022/11/11 02:19:26;;;;;;;4.38;4.00;;;9.50;99.90;;;;;;4229866;28;20412;-81
2022/11/11 02:21:56;;;;;;;4.72;4.50;;;9.30;99.90;;;;;;4235578;28;20080;-82
2022/11/11 02:24:19;;;;;;;4.30;3.95;;;9.20;99.90;;;;;;4227619;28;20156;-82
2022/11/11 02:26:41;;;;;;;3.70;3.58;;;9.30;99.90;;;;;;4234924;28;20073;-82
2022/11/11 02:29:03;;;;;;;4.18;3.97;;;9.20;99.90;;;;;;4220726;28;20040;-82
2022/11/11 02:31:28;;;;;;;4.10;4.00;;;9.10;99.90;;;;;;4226947;28;20091;-81
2022/11/11 02:33:48;;;;;;;4.15;4.05;;;9.00;99.90;;;;;;4235562;28;20051;-81
2022/11/11 02:36:14;;;;;;;4.30;4.20;;;9.00;99.90;;;;;;4220920;28;20338;-82
2022/11/11 02:38:34;;;;;;;4.05;3.95;;;8.90;99.90;;;;;;4221938;28;20043;-82
2022/11/11 02:43:34;;;;;;;6.00;5.70;;;9.00;99.90;;;;;;4233316;28;20043;-82
2022/11/11 02:45:54;;;;;;;4.57;4.28;;;9.00;99.90;;;;;;4237586;28;20288;-82
2022/11/11 02:48:14;;;;;;;3.60;3.50;;;8.90;99.90;;;;;;4223346;28;20127;-82
2022/11/11 02:50:34;;;;;;;3.38;3.38;;;8.80;99.90;;;;;;4235474;28;20043;-82
2022/11/11 02:52:54;;;;;;;3.92;3.83;;;8.80;99.90;;;;;;4235611;28;20230;-82
2022/11/11 02:55:14;;;;;;;4.55;4.45;;;8.90;99.90;;;;;;4235676;28;20230;-82
2022/11/11 02:57:35;;;;;;;3.83;3.72;;;9.10;99.90;;;;;;4232016;28;20095;-82
2022/11/11 02:59:59;;;;;;;4.68;4.50;;;9.10;99.90;;;;;;4235038;28;20365;-82
2022/11/11 03:02:19;;;;;;;3.67;3.67;;;9.00;99.90;;;;;;4230785;28;20069;-82
2022/11/11 03:04:39;;;;;;;3.58;3.58;;;8.90;99.90;;;;;;4226998;28;20058;-82
2022/11/11 03:07:00;;;;;;;3.30;3.20;;;8.80;99.90;;;;;;4227744;28;20038;-82
2022/11/11 03:09:20;;;;;;;3.72;3.55;;;8.80;99.90;;;;;;4225263;28;20116;-82
2022/11/11 03:11:40;;;;;;;3.53;3.33;;;8.80;99.90;;;;;;4226320;28;20089;-82
2022/11/11 03:14:00;;;;;;;3.88;3.78;;;8.90;99.90;;;;;;4228399;28;20082;-82
2022/11/11 03:18:58;;;;;;;3.80;3.65;;;8.90;99.90;;;;;;4230552;28;20077;-81
2022/11/11 03:21:19;;;;;;;4.45;4.13;;;8.90;99.90;;;;;;4218405;28;20236;-81
2022/11/11 03:23:58;;;;;;;4.22;4.03;;;8.80;99.90;;;;;;4233383;28;20067;-81
2022/11/11 03:26:18;;;;;;;3.65;3.45;;;8.80;99.90;;;;;;4221293;28;20055;-81
2022/11/11 03:28:37;;;;;;;3.80;3.80;;;8.70;99.90;;;;;;4223944;28;20363;-81
2022/11/11 03:30:58;;;;;;;3.65;3.65;;;8.70;99.90;;;;;;4225441;28;20105;-81
2022/11/11 03:33:23;;;;;;;3.80;3.60;;;8.80;99.90;;;;;;4225922;28;20079;-81
2022/11/11 03:35:46;;;;;;;3.03;2.83;;;8.80;99.90;;;;;;4216016;28;20051;-81
2022/11/11 03:38:15;;;;;;;3.90;3.80;;;9.00;99.90;;;;;;4232446;28;20039;-81
2022/11/11 03:40:35;;;;;;;3.13;2.75;;;9.10;99.90;;;;;;4223493;28;20090;-82
2022/11/11 03:42:54;;;;;;;3.00;3.00;;;9.10;99.90;;;;;;4219867;28;20054;-81
2022/11/11 03:45:22;;;;;;;3.03;2.80;;;9.10;99.90;;;;;;4233418;28;20112;-81
2022/11/11 03:47:41;;;;;;;3.78;3.67;;;9.10;99.90;;;;;;4231288;28;20419;-81
2022/11/11 03:50:02;;;;;;;4.00;3.90;;;9.00;99.90;;;;;;4236152;28;20089;-81
2022/11/11 03:52:22;;;;;;;3.40;3.33;;;9.00;99.90;;;;;;4225102;28;20051;-82
2022/11/11 03:54:41;;;;;;;3.80;3.70;;;9.00;99.90;;;;;;4232033;28;20238;-82
2022/11/11 03:59:39;;;;;;;4.35;4.25;;;8.90;99.90;;;;;;4230377;28;20038;-82
2022/11/11 04:16:04;;;;;;;4.45;4.35;;;8.70;99.90;;;;;;4232484;28;20035;-82
2022/11/11 04:18:06;;;;;;;5.10;4.85;;;8.50;99.90;;;;;;4201045;28;20042;-81
2022/11/11 04:23:05;;;;;;;4.47;4.38;;;8.70;99.90;;;;;;4233461;28;20055;-81
2022/11/11 04:30:41;;;;;;;5.05;4.75;;;8.90;99.90;;;;;;4227204;28;20047;-81
2022/11/11 04:33:01;;;;;;;4.20;4.10;;;8.90;99.90;;;;;;4226484;28;20057;-81
2022/11/11 04:35:22;;;;;;;4.05;3.95;;;8.90;99.90;;;;;;4231041;28;20108;-81
2022/11/11 04:37:50;;;;;;;4.57;4.38;;;8.90;99.90;;;;;;4231303;28;20042;-81
2022/11/11 04:42:53;;;;;;;4.38;4.30;;;9.00;99.90;;;;;;4235033;28;20372;-81
2022/11/11 04:45:29;;;;;;;3.83;3.70;;;9.10;99.90;;;;;;4228059;28;20054;-82
2022/11/11 04:48:00;;;;;;;3.30;3.30;;;9.20;99.90;;;;;;4230925;28;20381;-82
2022/11/11 04:50:21;;;;;;;3.47;3.38;;;9.40;99.90;;;;;;4215679;28;20097;-81
2022/11/11 04:52:41;;;;;;;4.32;4.18;;;9.40;99.90;;;;;;4227799;28;20131;-82
2022/11/11 04:57:47;;;;;;;3.53;3.42;;;9.40;99.90;;;;;;4228963;28;20391;-82
2022/11/11 05:00:09;;;;;;;5.03;4.82;;;9.30;99.90;;;;;;4214065;28;20043;-82
2022/11/11 05:05:07;;;;;;;3.78;3.78;;;8.80;99.90;;;;;;4225210;28;20039;-82
2022/11/11 05:10:16;;;;;;;4.30;4.20;;;8.90;99.90;;;;;;4161871;28;20084;-82
2022/11/11 05:12:35;;;;;;;4.93;4.53;;;8.80;99.90;;;;;;4229160;28;20082;-82
2022/11/11 05:22:58;;;;;;;5.38;5.10;;;8.40;99.90;;;;;;4229749;28;20059;-82
2022/11/11 05:25:32;;;;;;;4.75;4.53;;;8.40;99.90;;;;;;4223079;28;20378;-82
2022/11/11 05:27:53;;;;;;;5.05;4.78;;;8.50;99.90;;;;;;4214439;28;20048;-82
2022/11/11 05:30:14;;;;;;;4.35;3.85;;;8.50;99.90;;;;;;4215211;28;20055;-82
2022/11/11 05:32:34;;;;;;;4.55;4.45;;;8.50;99.90;;;;;;4229018;28;20074;-82
2022/11/11 05:34:55;;;;;;;5.03;4.75;;;8.60;99.90;;;;;;4215452;28;20231;-82
2022/11/11 05:37:15;;;;;;;5.10;5.00;;;8.70;99.90;;;;;;4226920;28;20043;-82
2022/11/11 05:39:35;;;;;;;6.10;5.90;;;8.60;99.90;;;;;;4216145;28;20130;-82
2022/11/11 05:41:54;;;;;;;5.35;5.25;;;8.50;99.90;;;;;;4226079;28;20082;-82
2022/11/11 05:44:14;;;;;;;5.45;5.25;;;8.50;99.90;;;;;;4214383;28;20088;-82
2022/11/11 05:46:34;;;;;;;3.75;3.65;;;8.50;99.90;;;;;;4229863;28;20137;-82
2022/11/11 05:51:32;;;;;;;4.60;4.38;;;8.80;99.90;;;;;;4225600;28;20053;-82
2022/11/11 05:53:58;;;;;;;4.90;4.63;;;8.70;99.90;;;;;;4226095;28;20079;-82
2022/11/11 05:56:17;;;;;;;4.80;4.70;;;8.70;99.90;;;;;;4222131;28;20087;-82
2022/11/11 05:58:37;;;;;;;4.30;4.20;;;8.70;99.90;;;;;;4228575;28;20043;-82
2022/11/11 06:00:56;;;;;;;16.90;15.45;;;8.70;99.90;;;;;;4224972;28;20043;-82
2022/11/11 06:03:16;;;;;;;8.63;8.07;;;8.70;99.90;;;;;;4230653;28;20043;-82
2022/11/11 06:05:36;;;;;;;10.80;10.30;;;8.70;99.90;;;;;;4216283;28;20056;-82
2022/11/11 06:07:56;;;;;;;5.72;5.63;;;8.60;99.90;;;;;;4215445;28;20083;-82
2022/11/11 06:10:31;;;;;;;7.47;7.28;;;8.50;99.90;;;;;;4223599;28;20043;-82
2022/11/11 06:13:08;;;;;;;14.30;13.23;;;8.40;99.90;;;;;;4231123;28;20072;-82
2022/11/11 06:15:29;;;;;;;18.50;17.08;;;8.30;99.90;;;;;;4230338;28;20036;-82
2022/11/11 06:17:48;;;;;;;13.13;12.35;;;8.20;99.90;;;;;;4222547;28;20138;-82
2022/11/11 06:20:09;;;;;;;7.20;6.97;;;8.10;99.90;;;;;;4224514;28;20055;-85
2022/11/11 06:27:45;;;;;;;5.47;5.38;;;8.10;99.90;;;;;;4233218;28;20257;-86
2022/11/11 06:30:05;;;;;;;5.47;5.38;;;8.10;99.90;;;;;;4233613;28;20054;-86
2022/11/11 06:32:45;;;;;;;5.50;5.28;;;8.10;99.90;;;;;;4214731;28;20074;-86
2022/11/11 06:35:05;;;;;;;4.28;4.18;;;8.20;99.90;;;;;;4216564;28;20050;-86
2022/11/11 06:37:24;;;;;;;4.78;4.68;;;8.20;99.90;;;;;;4214492;28;20047;-86
2022/11/11 06:39:44;;;;;;;9.23;8.93;;;8.30;99.90;;;;;;4215591;28;20279;-86
2022/11/11 06:42:04;;;;;;;5.90;5.75;;;8.30;99.90;;;;;;4222152;28;20222;-85
2022/11/11 06:44:23;;;;;;;4.72;4.53;;;8.30;99.90;;;;;;4226225;28;20073;-85
2022/11/11 06:46:43;;;;;;;5.10;4.85;;;8.40;99.90;;;;;;4230989;28;20063;-85
2022/11/11 06:49:03;;;;;;;3.50;3.30;;;8.50;99.90;;;;;;4231067;28;20054;-85
2022/11/11 06:51:23;;;;;;;3.92;3.63;;;8.60;99.90;;;;;;4228471;28;20071;-85
2022/11/11 06:53:43;;;;;;;3.50;3.22;;;8.70;99.90;;;;;;4228483;28;20127;-85
2022/11/11 06:56:03;;;;;;;3.75;3.75;;;8.70;99.90;;;;;;4230970;28;20107;-84
2022/11/11 06:58:23;;;;;;;3.88;3.85;;;8.70;99.90;;;;;;4216733;28;20067;-84
2022/11/11 07:00:45;;;;;;;4.22;3.50;;;8.80;99.90;;;;;;4216661;28;20051;-84
2022/11/11 07:03:07;;;;;;;2.67;2.67;;;8.90;99.90;;;;;;4224490;28;20047;-84
2022/11/11 07:05:26;;;;;;;3.42;3.42;;;8.90;99.90;;;;;;4233541;28;20101;-84
2022/11/11 07:07:46;;;;;;;3.13;3.13;;;8.90;99.90;;;;;;4224646;28;20055;-84
2022/11/11 07:10:09;;;;;;;4.90;4.70;;;9.00;99.90;;;;;;4224985;28;20145;-85
2022/11/11 07:12:29;;;;;;;3.78;3.63;;;9.10;99.90;;;;;;4230951;28;20090;-85
2022/11/11 07:14:49;;;;;;;173.10;119.22;;;9.10;99.90;;;;;;4231044;28;20047;-84
2022/11/11 07:17:08;;;;;;;62.97;50.15;;;9.10;99.90;;;;;;4229261;28;20047;-85
2022/11/11 07:19:28;;;;;;;15.90;14.55;;;9.10;99.90;;;;;;4229698;28;20043;-85
2022/11/11 07:21:48;;;;;;;11.85;11.05;;;9.10;99.90;;;;;;4229168;28;20067;-85
2022/11/11 07:24:11;;;;;;;13.93;13.20;;;9.10;99.90;;;;;;4219701;28;20372;-85
2022/11/11 07:26:31;;;;;;;5.90;5.80;;;9.20;99.90;;;;;;4227428;28;20235;-85
2022/11/11 07:28:51;;;;;;;6.32;6.22;;;9.30;99.90;;;;;;4224706;28;20043;-85
2022/11/11 07:31:11;;;;;;;3.92;3.90;;;9.30;99.90;;;;;;4224403;28;20162;-85
2022/11/11 07:33:30;;;;;;;2.78;2.78;;;9.40;99.90;;;;;;4227602;28;20057;-85
2022/11/11 07:35:50;;;;;;;5.47;5.00;;;9.30;99.90;;;;;;4220133;28;20043;-85
2022/11/11 07:38:10;;;;;;;3.13;3.03;;;9.40;99.90;;;;;;4235810;28;20396;-85
2022/11/11 07:40:30;;;;;;;3.88;3.60;;;9.50;99.90;;;;;;4236159;28;20054;-85
2022/11/11 07:42:50;;;;;;;4.22;4.10;;;9.50;99.90;;;;;;4219473;28;20114;-85
2022/11/11 07:45:11;;;;;;;5.80;5.60;;;9.50;99.90;;;;;;4219755;28;20101;-85
2022/11/11 07:47:31;;;;;;;10.55;10.05;;;9.60;99.90;;;;;;4218732;28;20283;-85
2022/11/11 07:49:51;;;;;;;11.45;10.75;;;9.70;99.90;;;;;;4220090;28;20051;-84
2022/11/11 07:52:10;;;;;;;6.20;5.90;;;9.70;99.90;;;;;;4221960;28;20043;-85
2022/11/11 07:54:30;;;;;;;7.53;7.20;;;9.70;99.90;;;;;;4215078;28;20051;-85
2022/11/11 07:56:50;;;;;;;5.53;5.43;;;10.00;99.90;;;;;;4233638;28;20046;-85
2022/11/11 07:59:10;;;;;;;4.75;4.55;;;10.20;99.90;;;;;;4232746;28;20082;-86
2022/11/11 08:01:29;;;;;;;5.30;5.20;;;10.30;99.90;;;;;;4225728;28;20062;-86
2022/11/11 08:03:49;;;;;;;9.40;8.90;;;10.40;99.90;;;;;;4232794;28;20065;-86
2022/11/11 08:06:09;;;;;;;7.05;6.82;;;10.50;99.90;;;;;;4222701;28;20126;-86
2022/11/11 08:08:29;;;;;;;6.35;6.10;;;10.60;99.90;;;;;;4229679;28;20376;-86
2022/11/11 08:10:48;;;;;;;7.03;6.82;;;10.50;99.90;;;;;;4227478;28;20085;-86
2022/11/11 08:15:51;;;;;;;4.43;4.30;;;10.70;99.90;;;;;;4227227;28;20074;-86
2022/11/11 08:18:10;;;;;;;6.45;6.25;;;10.80;99.90;;;;;;4227619;28;20365;-86
2022/11/11 08:20:30;;;;;;;6.15;5.95;;;10.80;99.90;;;;;;4229631;28;20046;-85
2022/11/11 08:22:53;;;;;;;5.20;5.05;;;10.80;99.90;;;;;;4226303;28;20357;-85
2022/11/11 08:25:33;;;;;;;4.75;4.65;;;11.00;99.90;;;;;;4232669;28;20047;-84
2022/11/11 08:28:01;;;;;;;4.45;4.15;;;11.10;99.90;;;;;;4215373;28;20043;-85
2022/11/11 08:30:21;;;;;;;4.45;4.15;;;11.20;99.90;;;;;;4228575;28;20080;-85
2022/11/11 08:32:41;;;;;;;3.03;2.92;;;11.40;99.90;;;;;;4218820;28;20444;-85
2022/11/11 08:35:01;;;;;;;4.07;3.97;;;11.50;99.90;;;;;;4231396;28;20445;-86
2022/11/11 08:37:21;;;;;;;4.75;4.57;;;11.70;99.90;;;;;;4230750;28;20074;-86
2022/11/11 08:39:40;;;;;;;3.50;3.35;;;11.70;99.90;;;;;;4225301;28;20417;-85
2022/11/11 08:42:00;;;;;;;4.97;4.88;;;11.70;99.90;;;;;;4233566;28;20236;-85
2022/11/11 08:44:20;;;;;;;4.53;4.43;;;11.80;99.90;;;;;;4232530;28;20051;-86
2022/11/11 08:46:39;;;;;;;3.65;3.55;;;11.80;99.90;;;;;;4222496;28;20130;-85
2022/11/11 08:48:59;;;;;;;3.40;3.20;;;11.80;99.90;;;;;;4214528;28;20062;-85
2022/11/11 08:51:19;;;;;;;2.83;2.72;;;12.00;99.90;;;;;;4232122;28;20055;-85
2022/11/11 08:53:39;;;;;;;2.47;2.38;;;12.10;99.90;;;;;;4228913;28;20139;-86
2022/11/11 08:56:01;;;;;;;2.67;2.67;;;12.30;99.90;;;;;;4229679;28;20046;-86
2022/11/11 08:58:21;;;;;;;5.05;4.95;;;12.40;99.90;;;;;;4228623;28;20126;-86
2022/11/11 09:00:41;;;;;;;2.17;2.08;;;12.60;99.90;;;;;;4231752;28;20085;-85
2022/11/11 09:03:02;;;;;;;2.70;2.70;;;12.80;99.90;;;;;;4227782;28;20073;-86
2022/11/11 09:05:22;;;;;;;2.97;2.88;;;12.80;99.90;;;;;;4231717;28;20129;-84
2022/11/11 09:07:42;;;;;;;4.00;3.90;;;12.90;99.90;;;;;;4228231;28;20116;-84
2022/11/11 09:10:02;;;;;;;1.98;1.90;;;13.00;99.90;;;;;;4226345;28;20050;-84
2022/11/11 09:12:22;;;;;;;2.45;1.77;;;13.10;99.90;;;;;;4213436;28;20063;-84
2022/11/11 09:14:42;;;;;;;1.60;1.50;;;13.40;99.90;;;;;;4221827;28;20121;-84
2022/11/11 09:17:01;;;;;;;1.77;1.77;;;13.50;99.90;;;;;;4226227;28;20039;-84
2022/11/11 09:19:21;;;;;;;1.77;1.40;;;13.60;99.90;;;;;;4225497;28;20054;-84
2022/11/11 09:21:41;;;;;;;1.48;1.48;;;13.60;99.90;;;;;;4230743;28;20133;-84
2022/11/11 09:24:00;;;;;;;1.80;1.75;;;13.70;99.90;;;;;;4229332;28;20059;-84
2022/11/11 09:26:20;;;;;;;1.58;1.23;;;13.70;99.90;;;;;;4227723;28;20058;-84
2022/11/11 09:28:40;;;;;;;1.67;1.40;;;13.90;99.90;;;;;;4233325;28;20163;-84
2022/11/11 09:31:05;;;;;;;1.10;1.10;;;13.90;99.90;;;;;;4235045;28;20381;-84
2022/11/11 09:33:45;;;;;;;1.70;1.67;;;14.00;99.90;;;;;;4230117;28;20050;-84
2022/11/11 09:36:04;;;;;;;3.20;3.10;;;14.10;99.90;;;;;;4218875;28;20078;-84
2022/11/11 09:38:24;;;;;;;1.80;1.80;;;14.20;99.90;;;;;;4232137;28;20051;-84
2022/11/11 09:40:50;;;;;;;2.20;2.05;;;14.40;99.90;;;;;;4215041;28;20141;-84
2022/11/11 09:43:28;;;;;;;1.40;1.40;;;14.40;99.90;;;;;;4227962;28;20373;-84
2022/11/11 09:46:00;;;;;;;1.60;1.60;;;14.50;99.90;;;;;;4230338;28;20047;-84
2022/11/11 09:48:37;;;;;;;1.20;1.20;;;14.60;99.90;;;;;;4229171;28;20239;-84
2022/11/11 09:51:01;;;;;;;1.50;1.50;;;14.70;99.90;;;;;;4234190;28;20385;-84
2022/11/11 09:53:31;;;;;;;1.20;1.20;;;14.70;99.90;;;;;;4228761;28;20047;-84
2022/11/11 09:56:03;;;;;;;1.10;1.10;;;14.60;99.90;;;;;;4230006;28;20043;-84
2022/11/11 09:58:43;;;;;;;0.90;0.90;;;14.50;99.90;;;;;;4231814;28;20132;-84
2022/11/11 10:01:17;;;;;;;1.00;1.00;;;14.70;99.90;;;;;;4228434;28;20039;-84
2022/11/11 10:03:48;;;;;;;1.02;1.02;;;15.10;99.90;;;;;;4225989;28;20047;-84
2022/11/11 10:06:32;;;;;;;0.90;0.90;;;15.40;99.90;;;;;;4224177;28;20043;-84
2022/11/11 10:09:17;;;;;;;1.38;1.27;;;15.60;99.90;;;;;;4220954;28;20090;-84
2022/11/11 10:12:01;;;;;;;1.10;1.10;;;15.70;99.90;;;;;;4225933;28;20039;-84
2022/11/11 10:14:21;;;;;;;1.00;1.00;;;15.70;99.90;;;;;;4215312;28;20039;-84
2022/11/11 10:17:01;;;;;;;1.88;1.88;;;15.70;99.90;;;;;;4232579;28;20081;-84
2022/11/11 10:19:38;;;;;;;2.45;1.48;;;15.80;99.90;;;;;;4228991;28;20034;-84
2022/11/11 10:22:01;;;;;;;1.00;1.00;;;16.00;99.90;;;;;;4227031;28;20382;-84
2022/11/11 10:24:40;;;;;;;0.90;0.90;;;16.30;99.90;;;;;;4230404;28;20108;-84
2022/11/11 10:27:27;;;;;;;0.90;0.90;;;16.40;99.90;;;;;;4231143;28;20051;-84
2022/11/11 10:29:48;;;;;;;0.90;0.90;;;16.70;99.90;;;;;;4232013;28;20232;-84
2022/11/11 10:32:17;;;;;;;0.90;0.90;;;16.80;99.90;;;;;;4230219;28;20035;-83
2022/11/11 10:34:36;;;;;;;1.27;0.90;;;17.00;99.90;;;;;;4233887;28;20046;-83
2022/11/11 10:36:57;;;;;;;0.85;0.85;;;16.80;99.90;;;;;;4217824;28;20039;-84
2022/11/11 10:39:27;;;;;;;0.80;0.80;;;16.90;99.90;;;;;;4229960;28;20047;-83
2022/11/11 10:41:49;;;;;;;0.90;0.90;;;17.00;99.90;;;;;;4234455;28;20074;-83
2022/11/11 10:44:25;;;;;;;0.90;0.90;;;17.00;99.90;;;;;;4217770;28;20048;-84
2022/11/11 10:47:03;;;;;;;0.80;0.80;;;17.10;99.90;;;;;;4229961;28;20038;-84
2022/11/11 10:49:26;;;;;;;0.80;0.80;;;17.00;99.90;;;;;;4217253;28;20055;-83
2022/11/11 10:51:54;;;;;;;2.95;0.90;;;17.20;99.90;;;;;;4229902;28;20058;-83
2022/11/11 10:54:16;;;;;;;0.80;0.80;;;17.20;99.90;;;;;;4221654;28;20081;-84
2022/11/11 10:57:03;;;;;;;0.80;0.80;;;17.30;99.90;;;;;;4234650;28;20227;-84
2022/11/11 10:59:44;;;;;;;0.90;0.90;;;17.30;99.90;;;;;;4198505;28;20054;-83
2022/11/11 11:02:26;;;;;;;0.95;0.95;;;17.20;99.90;;;;;;4215006;28;20070;-83
2022/11/11 11:05:02;;;;;;;0.80;0.80;;;17.20;99.90;;;;;;4224021;28;20076;-83
2022/11/11 11:07:28;;;;;;;0.90;0.90;;;17.40;99.90;;;;;;4226111;28;20043;-83
2022/11/11 11:09:55;;;;;;;0.85;0.85;;;17.70;99.90;;;;;;4237421;28;20360;-84
2022/11/11 11:12:30;;;;;;;1.05;0.90;;;17.70;99.90;;;;;;4233242;28;20099;-83
2022/11/11 11:14:55;;;;;;;0.80;0.80;;;17.80;99.90;;;;;;4216692;28;20367;-83
2022/11/11 11:17:20;;;;;;;0.80;0.80;;;17.80;99.90;;;;;;4229794;28;20346;-83
2022/11/11 11:19:40;;;;;;;0.90;0.90;;;17.90;99.90;;;;;;4227995;28;20381;-83
2022/11/11 11:22:01;;;;;;;0.90;0.90;;;17.90;99.90;;;;;;4218686;28;20093;-84
2022/11/11 11:24:25;;;;;;;0.90;0.90;;;18.00;99.90;;;;;;4225020;28;20090;-84
2022/11/11 11:26:48;;;;;;;0.80;0.80;;;18.00;99.90;;;;;;4228752;28;20071;-83
2022/11/11 11:29:08;;;;;;;0.90;0.90;;;18.00;99.90;;;;;;4235792;28;20051;-84
2022/11/11 11:31:39;;;;;;;0.80;0.80;;;18.00;99.90;;;;;;4233705;28;20107;-84
2022/11/11 11:33:59;;;;;;;0.90;0.90;;;18.10;99.90;;;;;;4232115;28;20039;-84
2022/11/11 11:36:19;;;;;;;0.85;0.80;;;18.10;99.90;;;;;;4219369;28;20043;-84
2022/11/11 11:38:49;;;;;;;0.80;0.80;;;18.00;99.90;;;;;;4233362;28;20034;-84
2022/11/11 11:41:09;;;;;;;0.80;0.80;;;18.00;99.90;;;;;;4223834;28;20077;-84
2022/11/11 11:43:41;;;;;;;0.85;0.85;;;17.90;99.90;;;;;;4224284;28;20077;-84
2022/11/11 11:46:17;;;;;;;0.90;0.90;;;18.10;99.90;;;;;;4218910;28;20051;-84
2022/11/11 11:48:57;;;;;;;0.80;0.80;;;18.20;99.90;;;;;;4224015;28;20039;-84
2022/11/11 11:51:23;;;;;;;0.80;0.80;;;18.50;99.90;;;;;;4232976;28;20391;-84
2022/11/11 11:54:13;;;;;;;0.70;0.70;;;18.60;99.90;;;;;;4217215;28;20040;-84
2022/11/11 11:56:44;;;;;;;0.80;0.80;;;18.40;99.90;;;;;;4213996;28;20071;-84
2022/11/11 11:59:12;;;;;;;0.80;0.80;;;18.60;99.90;;;;;;4229809;28;20235;-84
2022/11/11 12:01:59;;;;;;;0.80;0.80;;;18.50;99.90;;;;;;4227895;28;20107;-84
2022/11/11 12:04:49;;;;;;;0.80;0.80;;;18.70;99.90;;;;;;4227775;28;20096;-84
2022/11/11 12:07:15;;;;;;;0.90;0.90;;;18.70;99.90;;;;;;4228895;28;20104;-84
2022/11/11 12:09:44;;;;;;;0.80;0.80;;;18.60;99.90;;;;;;4216200;28;20369;-84
2022/11/11 12:12:15;;;;;;;0.80;0.80;;;18.60;99.90;;;;;;4219564;28;20124;-84
2022/11/11 12:14:55;;;;;;;0.98;0.90;;;18.70;99.90;;;;;;4232626;28;20051;-84
2022/11/11 12:17:27;;;;;;;0.90;0.90;;;18.80;99.90;;;;;;4232799;28;20086;-84
2022/11/11 12:19:56;;;;;;;0.80;0.80;;;18.40;99.90;;;;;;4214208;28;20042;-84
2022/11/11 12:22:43;;;;;;;0.90;0.90;;;18.50;99.90;;;;;;4215728;28;20039;-84
2022/11/11 12:25:15;;;;;;;0.80;0.80;;;18.60;99.90;;;;;;4232796;28;20070;-84
2022/11/11 12:27:35;;;;;;;0.90;0.90;;;18.60;99.90;;;;;;4232038;28;20103;-84
2022/11/11 12:30:10;;;;;;;3.13;0.90;;;18.30;99.90;;;;;;4218676;28;20061;-84
2022/11/11 12:33:11;;;;;;;0.90;0.90;;;18.30;99.90;;;;;;4215329;28;20719;-84
2022/11/11 12:35:46;;;;;;;0.90;0.90;;;18.40;99.90;;;;;;4177289;28;20086;-84
2022/11/11 12:38:41;;;;;;;0.88;0.80;;;18.00;99.90;;;;;;4229667;28;20038;-84
2022/11/11 12:41:23;;;;;;;0.90;0.90;;;18.10;99.90;;;;;;4230493;28;20059;-84
2022/11/11 12:43:49;;;;;;;0.80;0.80;;;18.40;99.90;;;;;;4230691;28;20157;-85
2022/11/11 12:46:37;;;;;;;1.38;0.90;;;18.50;99.90;;;;;;4230634;28;20043;-85
2022/11/11 12:49:12;;;;;;;0.90;0.90;;;18.50;99.90;;;;;;4223116;28;20085;-85
2022/11/11 12:51:44;;;;;;;0.90;0.90;;;18.40;99.90;;;;;;4228982;28;20223;-85
2022/11/11 12:54:23;;;;;;;0.80;0.80;;;18.50;99.90;;;;;;4221965;28;20047;-84
2022/11/11 12:56:49;;;;;;;0.80;0.80;;;18.40;99.90;;;;;;4221749;28;20111;-84
2022/11/11 12:59:27;;;;;;;0.93;0.88;;;18.10;99.90;;;;;;4221809;28;20319;-84
2022/11/11 13:01:56;;;;;;;1.67;0.90;;;18.10;99.90;;;;;;4236496;28;20396;-84
2022/11/11 13:04:48;;;;;;;1.00;1.00;;;18.00;99.90;;;;;;4232962;28;20042;-84
2022/11/11 13:07:26;;;;;;;3.90;3.65;;;18.10;99.90;;;;;;4229097;28;20050;-84
2022/11/11 13:10:08;;;;;;;1.58;1.48;;;18.20;99.90;;;;;;4222920;28;20038;-84
2022/11/11 13:12:53;;;;;;;1.08;1.08;;;18.00;99.90;;;;;;4230121;28;20042;-84
2022/11/11 13:15:24;;;;;;;1.35;1.35;;;18.00;99.90;;;;;;4229477;28;20054;-84
2022/11/11 13:17:44;;;;;;;3.67;2.90;;;18.10;99.90;;;;;;4225287;28;20047;-85
2022/11/11 13:20:22;;;;;;;1.10;1.10;;;18.30;99.90;;;;;;4211432;28;20063;-84
2022/11/11 13:22:42;;;;;;;0.80;0.80;;;18.40;99.90;;;;;;4228772;28;20112;-84
2022/11/11 13:25:05;;;;;;;1.00;1.00;;;18.40;99.90;;;;;;4232008;28;20050;-85
2022/11/11 13:27:38;;;;;;;1.30;1.00;;;18.20;99.90;;;;;;4223920;28;20061;-86
2022/11/11 13:30:32;;;;;;;1.15;0.90;;;18.20;99.90;;;;;;4235826;28;20047;-86
2022/11/11 13:33:07;;;;;;;;;;;18.10;99.90;;;;;;4231780;28;20043;-84
2022/11/11 13:35:55;;;;;;;0.90;0.90;;;18.40;99.90;;;;;;4227412;28;19923;-83
2022/11/11 13:38:46;;;;;;;1.20;1.10;;;18.10;99.90;;;;;;4221531;28;20046;-84
2022/11/11 13:41:07;;;;;;;0.90;0.90;;;17.80;99.90;;;;;;4231595;28;20042;-83
2022/11/11 13:43:46;;;;;;;1.00;1.00;;;17.60;99.90;;;;;;4231034;28;20042;-84
2022/11/11 13:46:11;;;;;;;0.90;0.90;;;17.60;99.90;;;;;;4221803;28;20154;-83
2022/11/11 13:48:37;;;;;;;0.90;0.90;;;17.50;99.90;;;;;;4221631;28;20043;-83
2022/11/11 13:51:12;;;;;;;2.53;1.20;;;17.50;99.90;;;;;;4228615;28;20039;-83
2022/11/11 13:53:36;;;;;;;1.00;1.00;;;17.50;99.90;;;;;;4217246;28;20036;-84
2022/11/11 13:56:03;;;;;;;1.00;1.00;;;17.30;99.90;;;;;;4235501;28;20047;-84
2022/11/11 13:58:28;;;;;;;1.90;0.90;;;17.30;99.90;;;;;;4230637;28;20400;-84
2022/11/11 14:00:57;;;;;;;1.10;1.10;;;17.20;99.90;;;;;;4211433;28;20043;-83